createdAt,value
2022-10-31T00:00:48.003Z,101920.06
2022-10-31T00:03:15.924Z,101922.44
2022-10-31T00:05:46.073Z,101924.63
2022-10-31T00:08:13.800Z,101933.47
2022-10-31T00:10:43.929Z,101938.19
2022-10-31T00:13:12.809Z,101947.78
2022-10-31T00:15:42.097Z,101945.84
2022-10-31T00:18:11.274Z,101966.25
2022-10-31T00:20:39.271Z,102007.88
2022-10-31T00:23:08.407Z,102024.03
2022-10-31T00:25:38.479Z,102024.91
2022-10-31T00:28:09.551Z,102022.97
2022-10-31T00:30:37.275Z,102021.38
2022-10-31T00:33:05.622Z,102005.19
2022-10-31T00:35:34.133Z,101996.47
2022-10-31T00:38:02.004Z,101991.31
2022-10-31T00:40:29.745Z,101979.91
2022-10-31T00:42:57.767Z,101970.63
2022-10-31T00:45:27.286Z,101963.47
2022-10-31T00:47:54.996Z,101948.38
2022-10-31T00:50:22.671Z,101976.84
2022-10-31T00:52:50.473Z,101995.88
2022-10-31T00:55:18.153Z,102003.25
2022-10-31T00:57:48.467Z,102007.88
2022-10-31T01:00:16.925Z,101994.81
2022-10-31T01:02:47.292Z,101990.03
2022-10-31T01:05:15.411Z,101984.81
2022-10-31T01:07:43.941Z,101990.84
2022-10-31T01:10:13.177Z,102002.31
2022-10-31T01:12:42.229Z,101996.25
2022-10-31T01:15:11.418Z,102015.16
2022-10-31T01:17:39.233Z,102027.16
2022-10-31T01:20:11.929Z,102041.06
2022-10-31T01:22:39.952Z,102031.81
2022-10-31T01:25:09.681Z,102014.88
2022-10-31T01:27:37.574Z,102014.72
2022-10-31T01:30:06.395Z,102041.31
2022-10-31T01:32:34.128Z,102062.16
2022-10-31T01:35:02.111Z,102084.63
2022-10-31T01:37:33.035Z,102095.09
2022-10-31T01:40:00.732Z,102110.47
2022-10-31T01:42:28.437Z,102113.34
2022-10-31T01:45:00.124Z,102102.47
2022-10-31T01:47:43.271Z,102109.84
2022-10-31T01:50:25.698Z,102124.44
2022-10-31T01:52:55.498Z,102136.88
2022-10-31T01:55:29.996Z,102144.97
2022-10-31T01:58:03.894Z,102161.25
2022-10-31T02:00:32.017Z,102163.47
2022-10-31T02:03:00.809Z,102164.44
2022-10-31T02:05:31.596Z,102176.75
2022-10-31T02:08:04.590Z,102173.00
2022-10-31T02:10:34.911Z,102179.53
2022-10-31T02:13:05.287Z,102175.31
2022-10-31T02:15:34.186Z,102165.41
2022-10-31T02:18:02.829Z,102149.44
2022-10-31T02:20:35.170Z,102147.16
2022-10-31T02:23:43.989Z,102147.97
2022-10-31T02:26:34.135Z,102153.69
2022-10-31T02:29:30.589Z,102158.16
2022-10-31T02:32:07.729Z,102166.03
2022-10-31T02:34:44.926Z,102157.44
2022-10-31T02:37:18.933Z,102161.31
2022-10-31T02:39:56.424Z,102156.97
2022-10-31T02:42:31.365Z,102158.03
2022-10-31T02:45:06.224Z,102161.31
2022-10-31T02:47:38.761Z,102148.34
2022-10-31T02:50:10.845Z,102140.38
2022-10-31T02:52:38.602Z,102147.03
2022-10-31T02:55:14.651Z,102137.72
2022-10-31T02:57:43.845Z,102130.97
2022-10-31T03:00:15.048Z,102129.78
2022-10-31T03:02:58.591Z,102128.09
2022-10-31T03:05:39.761Z,102142.19
2022-10-31T03:08:16.749Z,102147.88
2022-10-31T03:10:49.458Z,102143.50
2022-10-31T03:13:29.994Z,102133.59
2022-10-31T03:16:08.691Z,102137.59
2022-10-31T03:18:42.865Z,102139.28
2022-10-31T03:21:15.471Z,102146.06
2022-10-31T03:23:46.855Z,102147.03
2022-10-31T03:26:17.458Z,102152.44
2022-10-31T03:28:48.456Z,102148.19
2022-10-31T03:31:20.331Z,102151.22
2022-10-31T03:33:51.356Z,102138.69
2022-10-31T03:36:19.873Z,102148.19
2022-10-31T03:38:48.649Z,102157.13
2022-10-31T03:41:23.826Z,102164.44
2022-10-31T03:44:03.073Z,102171.66
2022-10-31T03:46:30.922Z,102160.25
2022-10-31T03:49:01.468Z,102153.38
2022-10-31T03:51:34.623Z,102156.81
2022-10-31T03:54:10.894Z,102164.00
2022-10-31T03:56:42.839Z,102175.50
2022-10-31T03:59:17.479Z,102172.53
2022-10-31T04:01:50.804Z,102162.13
2022-10-31T04:04:21.595Z,102164.44
2022-10-31T04:06:51.108Z,102156.13
2022-10-31T04:09:21.470Z,102156.44
2022-10-31T04:11:53.607Z,102160.66
2022-10-31T04:14:23.473Z,102161.34
2022-10-31T04:16:51.243Z,102155.53
2022-10-31T04:19:20.449Z,102154.75
2022-10-31T04:21:48.149Z,102156.50
2022-10-31T04:24:15.898Z,102159.38
2022-10-31T04:26:43.673Z,102159.34
2022-10-31T04:29:11.400Z,102143.94
2022-10-31T04:31:39.163Z,102149.69
2022-10-31T04:34:08.280Z,102142.69
2022-10-31T04:36:37.457Z,102148.72
2022-10-31T04:39:05.492Z,102146.84
2022-10-31T04:41:33.216Z,102144.09
2022-10-31T04:44:00.931Z,102146.34
2022-10-31T04:46:28.668Z,102130.63
2022-10-31T04:48:56.545Z,102135.22
2022-10-31T04:51:24.483Z,102127.47
2022-10-31T04:53:53.592Z,102141.72
2022-10-31T04:56:21.299Z,102150.13
2022-10-31T04:58:49.076Z,102148.06
2022-10-31T05:01:16.853Z,102151.97
2022-10-31T05:03:44.743Z,102150.59
2022-10-31T05:06:12.457Z,102151.81
2022-10-31T05:08:40.498Z,102148.94
2022-10-31T05:11:09.593Z,102153.50
2022-10-31T05:13:37.315Z,102156.81
2022-10-31T05:16:05.248Z,102159.47
2022-10-31T05:18:33.425Z,102155.31
2022-10-31T05:21:01.172Z,102143.34
2022-10-31T05:23:28.870Z,102145.69
2022-10-31T05:25:56.575Z,102119.59
2022-10-31T05:28:25.731Z,102123.47
2022-10-31T05:30:53.482Z,102128.47
2022-10-31T05:33:21.203Z,102120.81
2022-10-31T05:35:49.295Z,102123.31
2022-10-31T05:38:17.132Z,102092.72
2022-10-31T05:40:44.959Z,102087.16
2022-10-31T05:43:12.664Z,102079.66
2022-10-31T05:45:41.830Z,102066.38
2022-10-31T05:48:10.364Z,102062.28
2022-10-31T05:50:38.104Z,102056.13
2022-10-31T05:53:08.053Z,102060.00
2022-10-31T05:55:35.807Z,102070.84
2022-10-31T05:58:04.021Z,102058.91
2022-10-31T06:00:32.068Z,102086.72
2022-10-31T06:03:02.203Z,102110.97
2022-10-31T06:05:30.587Z,102123.22
2022-10-31T06:07:58.869Z,102107.44
2022-10-31T06:10:29.736Z,102077.84
2022-10-31T06:12:57.505Z,102106.06
2022-10-31T06:15:25.287Z,102122.16
2022-10-31T06:18:05.980Z,102095.78
2022-10-31T06:20:34.086Z,102092.09
2022-10-31T06:23:02.601Z,102119.88
2022-10-31T06:25:39.427Z,102142.31
2022-10-31T06:28:07.362Z,102124.97
2022-10-31T06:30:35.046Z,102108.63
2022-10-31T06:33:07.512Z,102119.50
2022-10-31T06:35:35.397Z,102130.63
2022-10-31T06:38:03.544Z,102145.66
2022-10-31T06:40:31.666Z,102164.31
2022-10-31T06:43:00.219Z,102169.94
2022-10-31T06:45:28.528Z,102183.25
2022-10-31T06:48:16.735Z,102199.25
2022-10-31T06:50:46.272Z,102191.09
2022-10-31T06:53:15.066Z,102200.66
2022-10-31T06:55:43.592Z,102192.47
2022-10-31T06:58:13.067Z,102195.84
2022-10-31T07:00:40.890Z,102206.09
2022-10-31T07:03:12.354Z,102206.81
2022-10-31T07:05:40.525Z,102222.06
2022-10-31T07:08:13.060Z,102219.38
2022-10-31T07:10:42.726Z,102218.91
2022-10-31T07:13:13.502Z,102199.31
2022-10-31T07:15:43.431Z,102191.47
2022-10-31T07:18:13.457Z,102193.91
2022-10-31T07:20:41.263Z,102201.00
2022-10-31T07:23:11.596Z,102207.13
2022-10-31T07:25:39.320Z,102210.22
2022-10-31T07:28:10.102Z,102209.38
2022-10-31T07:30:38.744Z,102199.13
2022-10-31T07:33:07.234Z,102203.88
2022-10-31T07:35:35.816Z,102217.88
2022-10-31T07:38:12.293Z,102197.97
2022-10-31T07:40:40.717Z,102196.56
2022-10-31T07:43:10.126Z,102228.56
2022-10-31T07:45:43.127Z,102230.56
2022-10-31T07:48:11.043Z,102236.94
2022-10-31T07:50:38.800Z,102225.81
2022-10-31T07:53:09.982Z,102224.41
2022-10-31T07:55:39.797Z,102228.22
2022-10-31T07:58:09.848Z,102215.25
2022-10-31T08:00:41.681Z,102217.03
2022-10-31T08:03:11.351Z,102211.69
2022-10-31T08:05:42.047Z,102216.50
2022-10-31T08:08:10.696Z,102231.78
2022-10-31T08:10:41.449Z,102229.06
2022-10-31T08:13:10.889Z,102226.75
2022-10-31T08:15:40.881Z,102212.06
2022-10-31T08:18:12.824Z,102213.34
2022-10-31T08:20:40.945Z,102230.22
2022-10-31T08:23:12.119Z,102237.69
2022-10-31T08:25:42.890Z,102223.81
2022-10-31T08:28:12.328Z,102213.59
2022-10-31T08:30:40.747Z,102216.66
2022-10-31T08:33:11.674Z,102221.81
2022-10-31T08:35:39.462Z,102219.84
2022-10-31T08:38:08.729Z,102224.28
2022-10-31T08:40:37.916Z,102215.34
2022-10-31T08:43:08.539Z,102243.53
2022-10-31T08:45:38.578Z,102243.13
2022-10-31T08:48:08.547Z,102248.47
2022-10-31T08:50:37.812Z,102237.47
2022-10-31T08:53:09.879Z,102229.34
2022-10-31T08:55:39.069Z,102241.56
2022-10-31T08:58:14.691Z,102235.31
2022-10-31T09:00:42.861Z,102252.44
2022-10-31T09:03:13.859Z,102264.28
2022-10-31T09:05:42.340Z,102285.72
2022-10-31T09:08:16.027Z,102302.78
2022-10-31T09:10:45.363Z,102304.19
2022-10-31T09:13:16.344Z,102327.31
2022-10-31T09:15:46.166Z,102347.72
2022-10-31T09:18:15.068Z,102350.94
2022-10-31T09:20:44.210Z,102353.31
2022-10-31T09:23:13.581Z,102342.50
2022-10-31T09:25:46.151Z,102348.25
2022-10-31T09:28:20.372Z,102350.38
2022-10-31T09:30:49.372Z,102337.53
2022-10-31T09:33:17.105Z,102345.44
2022-10-31T09:35:44.869Z,102336.97
2022-10-31T09:38:15.545Z,102357.28
2022-10-31T09:40:45.097Z,102362.53
2022-10-31T09:43:26.328Z,102377.97
2022-10-31T09:46:02.891Z,102384.47
2022-10-31T09:48:45.201Z,102379.97
2022-10-31T09:51:17.335Z,102366.69
2022-10-31T09:53:51.362Z,102363.66
2022-10-31T09:56:22.485Z,102340.97
2022-10-31T09:58:56.210Z,102352.28
2022-10-31T10:01:45.032Z,102334.00
2022-10-31T10:04:28.705Z,102331.56
2022-10-31T10:06:56.672Z,102331.94
2022-10-31T10:09:28.131Z,102300.47
2022-10-31T10:12:08.642Z,102313.38
2022-10-31T10:14:56.049Z,102299.63
2022-10-31T10:17:35.103Z,102285.19
2022-10-31T10:20:20.922Z,102300.88
2022-10-31T10:22:54.765Z,102308.00
2022-10-31T10:25:24.869Z,102269.53
2022-10-31T10:28:04.172Z,102273.53
2022-10-31T10:30:39.306Z,102283.88
2022-10-31T10:33:12.480Z,102283.00
2022-10-31T10:35:45.138Z,102255.09
2022-10-31T10:38:19.430Z,102259.28
2022-10-31T10:40:48.375Z,102287.09
2022-10-31T10:43:26.306Z,102288.16
2022-10-31T10:46:35.891Z,102333.56
2022-10-31T10:49:13.671Z,102324.44
2022-10-31T10:51:58.306Z,102327.78
2022-10-31T10:54:45.080Z,102364.75
2022-10-31T10:57:34.785Z,102362.63
2022-10-31T11:00:05.353Z,102358.28
2022-10-31T11:02:35.132Z,102349.84
2022-10-31T11:05:04.534Z,102340.69
2022-10-31T11:07:40.370Z,102331.84
2022-10-31T11:10:15.972Z,102340.00
2022-10-31T11:12:45.227Z,102328.47
2022-10-31T11:15:22.197Z,102307.19
2022-10-31T11:17:54.483Z,102302.88
2022-10-31T11:20:32.245Z,102333.81
2022-10-31T11:23:18.438Z,102322.84
2022-10-31T11:25:54.817Z,102327.56
2022-10-31T11:28:22.635Z,102324.78
2022-10-31T11:30:53.238Z,102339.88
2022-10-31T11:33:31.634Z,102359.25
2022-10-31T11:35:59.742Z,102333.69
2022-10-31T11:38:34.697Z,102330.44
2022-10-31T11:41:11.869Z,102323.22
2022-10-31T11:43:41.049Z,102337.31
2022-10-31T11:46:13.406Z,102335.50
2022-10-31T11:48:49.561Z,102335.78
2022-10-31T11:51:23.132Z,102346.03
2022-10-31T11:53:56.921Z,102351.28
2022-10-31T11:56:28.475Z,102346.94
2022-10-31T11:59:01.301Z,102343.91
2022-10-31T12:01:31.240Z,102338.44
2022-10-31T12:04:10.657Z,102340.00
2022-10-31T12:06:40.026Z,102332.38
2022-10-31T12:09:20.862Z,102325.09
2022-10-31T12:12:05.056Z,102332.84
2022-10-31T12:14:39.104Z,102351.53
2022-10-31T12:17:15.569Z,102347.91
2022-10-31T12:20:02.781Z,102341.25
2022-10-31T12:22:41.807Z,102330.56
2022-10-31T12:25:34.699Z,102330.31
2022-10-31T12:28:16.406Z,102329.47
2022-10-31T12:30:58.161Z,102331.88
2022-10-31T12:33:41.284Z,102331.53
2022-10-31T12:36:30.643Z,102343.94
2022-10-31T12:39:25.310Z,102340.72
2022-10-31T12:41:58.119Z,102343.38
2022-10-31T12:44:50.781Z,102337.06
2022-10-31T12:47:34.972Z,102310.16
2022-10-31T12:50:18.733Z,102302.47
2022-10-31T12:52:58.994Z,102319.88
2022-10-31T12:55:50.107Z,102330.03
2022-10-31T12:58:24.132Z,102318.91
2022-10-31T13:00:58.778Z,102300.88
2022-10-31T13:03:34.616Z,102301.75
2022-10-31T13:06:07.613Z,102314.84
2022-10-31T13:08:43.846Z,102304.16
2022-10-31T13:11:17.591Z,102294.16
2022-10-31T13:13:50.600Z,102308.34
2022-10-31T13:16:20.648Z,102311.81
2022-10-31T13:18:53.061Z,102330.69
2022-10-31T13:21:24.281Z,102346.50
2022-10-31T13:23:53.783Z,102329.31
2022-10-31T13:26:33.662Z,102318.84
2022-10-31T13:29:08.785Z,102327.50
2022-10-31T13:31:36.558Z,102312.13
2022-10-31T13:34:11.478Z,102312.22
2022-10-31T13:36:44.167Z,102303.44
2022-10-31T13:39:25.525Z,102309.13
2022-10-31T13:41:59.241Z,102322.13
2022-10-31T13:44:30.530Z,102322.22
2022-10-31T13:47:00.220Z,102341.13
2022-10-31T13:49:40.371Z,102352.78
2022-10-31T13:52:23.904Z,102347.38
2022-10-31T13:54:56.991Z,102356.56
2022-10-31T13:57:34.388Z,102340.41
2022-10-31T14:00:09.505Z,102335.03
2022-10-31T14:02:38.860Z,102320.16
2022-10-31T14:05:25.862Z,102304.22
2022-10-31T14:07:55.423Z,102281.66
2022-10-31T14:10:29.472Z,102287.50
2022-10-31T14:13:06.699Z,102302.81
2022-10-31T14:15:34.826Z,102302.22
2022-10-31T14:18:05.009Z,102291.41
2022-10-31T14:20:39.876Z,102280.88
2022-10-31T14:23:29.330Z,102279.47
2022-10-31T14:26:09.473Z,102272.13
2022-10-31T14:28:38.035Z,102268.31
2022-10-31T14:31:35.944Z,102274.66
2022-10-31T14:34:09.364Z,102302.00
2022-10-31T14:36:46.073Z,102304.84
2022-10-31T14:39:20.528Z,102268.00
2022-10-31T14:42:03.281Z,102252.97
2022-10-31T14:44:55.220Z,102247.16
2022-10-31T14:47:36.492Z,102252.03
2022-10-31T14:50:23.350Z,102255.59
2022-10-31T14:52:53.155Z,102257.41
2022-10-31T14:55:21.823Z,102245.19
2022-10-31T14:57:53.177Z,102243.00
2022-10-31T15:00:23.457Z,102268.94
2022-10-31T15:03:00.892Z,102258.53
2022-10-31T15:05:30.369Z,102242.38
2022-10-31T15:07:59.731Z,102236.63
2022-10-31T15:10:30.712Z,102246.03
2022-10-31T15:12:58.902Z,102244.47
2022-10-31T15:15:28.496Z,102261.94
2022-10-31T15:18:01.151Z,102270.44
2022-10-31T15:20:32.649Z,102260.63
2022-10-31T15:23:02.032Z,102248.28
2022-10-31T15:25:37.163Z,102238.16
2022-10-31T15:28:15.144Z,102244.88
2022-10-31T15:30:52.663Z,102253.47
2022-10-31T15:33:25.894Z,102239.84
2022-10-31T15:35:58.760Z,102237.78
2022-10-31T15:38:27.734Z,102247.25
2022-10-31T15:41:00.648Z,102245.59
2022-10-31T15:43:33.742Z,102242.91
2022-10-31T15:46:02.434Z,102264.38
2022-10-31T15:48:32.891Z,102259.78
2022-10-31T15:51:01.167Z,102280.13
2022-10-31T15:53:36.840Z,102301.59
2022-10-31T15:56:08.042Z,102281.97
2022-10-31T15:58:43.787Z,102258.78
2022-10-31T16:01:25.563Z,102281.88
2022-10-31T16:04:07.654Z,102308.84
2022-10-31T16:06:36.691Z,102320.59
2022-10-31T16:09:06.174Z,102333.19
2022-10-31T16:11:39.223Z,102319.56
2022-10-31T16:14:09.575Z,102313.75
2022-10-31T16:16:44.688Z,102305.44
2022-10-31T16:19:20.832Z,102300.25
2022-10-31T16:21:50.817Z,102269.84
2022-10-31T16:24:24.640Z,102271.44
2022-10-31T16:26:54.636Z,102278.34
2022-10-31T16:29:34.330Z,102286.88
2022-10-31T16:32:02.268Z,102274.06
2022-10-31T16:34:31.502Z,102280.19
2022-10-31T16:36:59.162Z,102276.06
2022-10-31T16:39:26.892Z,102281.22
2022-10-31T16:41:57.996Z,102293.16
2022-10-31T16:44:27.672Z,102312.63
2022-10-31T16:47:11.163Z,102307.25
2022-10-31T16:49:40.287Z,102309.53
2022-10-31T16:52:08.151Z,102280.56
2022-10-31T16:54:36.162Z,102287.00
2022-10-31T16:57:06.615Z,102285.81
2022-10-31T16:59:37.206Z,102278.69
2022-10-31T17:02:06.350Z,102277.38
2022-10-31T17:04:34.165Z,102259.22
2022-10-31T17:07:03.281Z,102249.81
2022-10-31T17:09:31.073Z,102246.03
2022-10-31T17:11:59.580Z,102243.06
2022-10-31T17:14:27.777Z,102239.47
2022-10-31T17:16:58.107Z,102243.00
2022-10-31T17:19:25.919Z,102254.78
2022-10-31T17:21:53.913Z,102264.94
2022-10-31T17:24:23.184Z,102266.50
2022-10-31T17:26:50.955Z,102274.38
2022-10-31T17:29:18.651Z,102280.78
2022-10-31T17:31:46.457Z,102263.03
2022-10-31T17:34:14.137Z,102248.56
2022-10-31T17:36:41.842Z,102248.88
2022-10-31T17:39:10.887Z,102253.84
2022-10-31T17:41:39.975Z,102244.63
2022-10-31T17:44:07.677Z,102244.25
2022-10-31T17:46:35.505Z,102241.16
2022-10-31T17:49:04.970Z,102226.59
2022-10-31T17:51:32.758Z,102237.44
2022-10-31T17:54:00.478Z,102250.69
2022-10-31T17:56:28.397Z,102243.59
2022-10-31T17:58:58.258Z,102239.78
2022-10-31T18:01:26.298Z,102231.28
2022-10-31T18:03:54.213Z,102247.66
2022-10-31T18:06:23.992Z,102247.91
2022-10-31T18:08:51.718Z,102243.16
2022-10-31T18:11:22.960Z,102230.94
2022-10-31T18:13:57.583Z,102238.31
2022-10-31T18:16:25.866Z,102236.97
2022-10-31T18:18:54.744Z,102239.47
2022-10-31T18:21:22.484Z,102228.81
2022-10-31T18:23:54.957Z,102214.47
2022-10-31T18:26:23.664Z,102225.63
2022-10-31T18:28:51.818Z,102222.53
2022-10-31T18:31:21.258Z,102213.00
2022-10-31T18:33:49.023Z,102222.63
2022-10-31T18:36:16.710Z,102233.16
2022-10-31T18:38:45.974Z,102219.50
2022-10-31T18:41:15.010Z,102231.66
2022-10-31T18:43:43.259Z,102224.41
2022-10-31T18:46:17.133Z,102218.69
2022-10-31T18:48:47.200Z,102215.09
2022-10-31T18:51:18.260Z,102205.81
2022-10-31T18:53:52.769Z,102202.47
2022-10-31T18:56:24.515Z,102200.16
2022-10-31T18:58:52.586Z,102203.00
2022-10-31T19:01:22.314Z,102191.75
2022-10-31T19:03:56.439Z,102199.69
2022-10-31T19:06:24.445Z,102196.78
2022-10-31T19:08:58.508Z,102192.84
2022-10-31T19:11:26.516Z,102188.66
2022-10-31T19:13:54.267Z,102184.25
2022-10-31T19:16:22.153Z,102182.16
2022-10-31T19:18:49.930Z,102194.78
2022-10-31T19:21:19.443Z,102188.69
2022-10-31T19:23:47.386Z,102184.13
2022-10-31T19:26:15.355Z,102172.06
2022-10-31T19:28:43.239Z,102169.28
2022-10-31T19:31:11.365Z,102172.91
2022-10-31T19:33:39.209Z,102180.31
2022-10-31T19:36:09.670Z,102213.38
2022-10-31T19:38:41.992Z,102227.41
2022-10-31T19:41:11.524Z,102247.09
2022-10-31T19:43:39.818Z,102264.84
2022-10-31T19:46:17.369Z,102266.97
2022-10-31T19:48:57.276Z,102267.09
2022-10-31T19:51:25.003Z,102263.28
2022-10-31T19:53:55.184Z,102251.72
2022-10-31T19:56:24.496Z,102249.16
2022-10-31T19:58:52.293Z,102237.25
2022-10-31T20:01:24.285Z,102236.06
2022-10-31T20:03:52.563Z,102244.47
2022-10-31T20:06:23.678Z,102236.19
2022-10-31T20:08:55.066Z,102240.19
2022-10-31T20:11:24.927Z,102231.56
2022-10-31T20:13:53.360Z,102234.78
2022-10-31T20:16:21.096Z,102231.31
2022-10-31T20:18:48.919Z,102228.50
2022-10-31T20:21:22.339Z,102223.41
2022-10-31T20:23:50.547Z,102230.53
2022-10-31T20:26:22.364Z,102250.75
2022-10-31T20:28:51.724Z,102263.28
2022-10-31T20:31:21.525Z,102253.31
2022-10-31T20:33:49.928Z,102251.56
2022-10-31T20:36:19.487Z,102236.56
2022-10-31T20:38:47.805Z,102234.75
2022-10-31T20:41:18.032Z,102235.44
2022-10-31T20:43:46.188Z,102234.59
2022-10-31T20:46:19.327Z,102232.31
2022-10-31T20:48:48.451Z,102230.81
2022-10-31T20:51:21.380Z,102223.19
2022-10-31T20:53:49.426Z,102218.50
2022-10-31T20:56:18.737Z,102215.69
2022-10-31T20:58:46.997Z,102223.84
2022-10-31T21:01:18.270Z,102221.28
2022-10-31T21:03:46.448Z,102232.19
2022-10-31T21:06:14.826Z,102225.81
2022-10-31T21:08:43.394Z,102227.50
2022-10-31T21:11:12.660Z,102224.91
2022-10-31T21:13:41.929Z,102217.81
2022-10-31T21:16:12.641Z,102217.53
2022-10-31T21:18:43.363Z,102223.34
2022-10-31T21:21:12.933Z,102223.22
2022-10-31T21:23:41.331Z,102215.41
2022-10-31T21:26:11.021Z,102207.66
2022-10-31T21:28:39.074Z,102206.53
2022-10-31T21:31:08.233Z,102210.38
2022-10-31T21:33:36.924Z,102209.66
2022-10-31T21:36:06.994Z,102207.22
2022-10-31T21:38:35.652Z,102203.28
2022-10-31T21:41:05.352Z,102199.78
2022-10-31T21:43:35.724Z,102182.66
2022-10-31T21:46:07.766Z,102200.97
2022-10-31T21:48:39.039Z,102210.34
2022-10-31T21:51:10.392Z,102209.47
2022-10-31T21:53:56.441Z,102213.03
2022-10-31T21:56:24.589Z,102212.56
2022-10-31T21:58:53.372Z,102211.31
2022-10-31T22:01:21.791Z,102221.22
2022-10-31T22:03:50.354Z,102227.06
2022-10-31T22:06:19.548Z,102232.41
2022-10-31T22:08:47.753Z,102218.94
2022-10-31T22:11:17.480Z,102235.22
2022-10-31T22:13:47.094Z,102214.41
2022-10-31T22:16:17.252Z,102202.16
2022-10-31T22:18:45.527Z,102190.44
2022-10-31T22:21:15.887Z,102207.09
2022-10-31T22:23:45.639Z,102208.88
2022-10-31T22:26:16.264Z,102193.72
2022-10-31T22:28:45.756Z,102202.94
2022-10-31T22:31:15.246Z,102202.56
2022-10-31T22:33:43.055Z,102203.16
2022-10-31T22:36:12.488Z,102206.03
2022-10-31T22:38:42.404Z,102204.03
2022-10-31T22:41:13.182Z,102187.44
2022-10-31T22:43:41.338Z,102197.22
2022-10-31T22:46:16.247Z,102208.69
2022-10-31T22:48:46.157Z,102217.59
2022-10-31T22:51:16.716Z,102219.78
2022-10-31T22:53:47.474Z,102230.34
2022-10-31T22:56:19.026Z,102225.31
2022-10-31T22:58:53.110Z,102234.09
2022-10-31T23:01:22.683Z,102228.06
2022-10-31T23:03:51.544Z,102221.31
2022-10-31T23:06:21.193Z,102237.72
2022-10-31T23:08:49.849Z,102239.88
2022-10-31T23:11:21.535Z,102240.66
2022-10-31T23:14:08.859Z,102244.06
2022-10-31T23:16:37.306Z,102257.88
2022-10-31T23:19:08.086Z,102235.97
2022-10-31T23:21:54.735Z,102230.56
2022-10-31T23:24:34.749Z,102251.28
2022-10-31T23:27:11.207Z,102234.38
2022-10-31T23:29:45.428Z,102242.22
2022-10-31T23:32:18.908Z,102239.81
2022-10-31T23:34:47.442Z,102237.00
2022-10-31T23:37:15.743Z,102247.53
2022-10-31T23:39:43.735Z,102255.59
2022-10-31T23:42:13.781Z,102258.34
2022-10-31T23:44:41.520Z,102258.28
2022-10-31T23:47:09.895Z,102259.91
2022-10-31T23:49:37.763Z,102231.81
2022-10-31T23:52:06.351Z,102240.88
2022-10-31T23:54:35.072Z,102247.94
2022-10-31T23:57:03.183Z,102258.44
2022-10-31T23:59:32.911Z,102257.50
